»·PEaware :: N80VJ KSNA-KCRQ

N80VJ :: KSNA-KCRQ

FLIGHT INFORMATION

Flight Status: Arrived
Operator: Privately registered:
United States
More flights under this callsign
Pilot: Christopher S. (28961)
Aircraft: CIRRUS SR-20
(SR20)
More flights by this aircraft type
Origin: KSNA John Wayne-Orange Co
United States
Destination: KCRQ McClellan-Palomar
United States
More flights between these airports :: More routes between these airports
Route: V23 OCN
File this flight plan on PilotEdge
Remarks:
Altitude:
(Current/Filed)
5,000ft
Speed:
(Current/Filed)
147kts
Departed: 17-Jan-21 10:19 AM
Arrived: 17-Jan-21 10:59 AM
Distance/Time
Traveled:
44nm/0:39
Distance/Time
To Go:
Arrived

Flight Plot

Page will automatically refresh every two minutes.


Map Options




Map Legend


Flown Route
Filed Route
Departure Airport
Arrival Airport
Navaid (VOR, NDB)
Fix

Horizontal Profiles

Position Reports

Time Latitude Longitude Heading Altitude Ground
Speed
17-Jan-21 09:58 33.667174 -117.872131 225 59ft 0kts
17-Jan-21 09:59 33.667174 -117.872131 225 59ft 0kts
17-Jan-21 10:00 33.667174 -117.872131 225 59ft 0kts
17-Jan-21 10:01 33.667174 -117.872131 225 59ft 0kts
17-Jan-21 10:02 33.667174 -117.872131 225 59ft 0kts
17-Jan-21 10:03 33.667174 -117.872131 225 59ft 0kts
17-Jan-21 10:04 33.667174 -117.872131 225 59ft 0kts
17-Jan-21 10:06 33.667174 -117.872131 225 59ft 0kts
17-Jan-21 10:07 33.667174 -117.872131 225 59ft 0kts
17-Jan-21 10:08 33.667174 -117.872131 225 59ft 0kts
17-Jan-21 10:09 33.667174 -117.872131 225 59ft 0kts
17-Jan-21 10:10 33.667174 -117.872131 225 59ft 0kts
17-Jan-21 10:11 33.667174 -117.872131 225 59ft 0kts
17-Jan-21 10:12 33.667174 -117.872131 225 59ft 0kts
17-Jan-21 10:13 33.667174 -117.872131 225 59ft 0kts
17-Jan-21 10:14 33.667498 -117.872335 33 59ft 15kts
17-Jan-21 10:15 33.674354 -117.866930 25 59ft 18kts
17-Jan-21 10:16 33.679870 -117.863570 319 59ft 0kts
17-Jan-21 10:17 33.679870 -117.863570 319 59ft 0kts
17-Jan-21 10:18 33.680016 -117.864223 218 59ft 11kts
17-Jan-21 10:19 33.665451 -117.876377 246 766ft 88kts
17-Jan-21 10:19 33.670082 -117.904016 272 1476ft 104kts
17-Jan-21 10:21 33.638697 -117.918880 186 2507ft 112kts
17-Jan-21 10:22 33.607170 -117.923684 186 3684ft 109kts
17-Jan-21 10:22 33.581156 -117.927646 186 4566ft 110kts
17-Jan-21 10:23 33.545882 -117.932972 186 4921ft 144kts
17-Jan-21 10:24 33.504478 -117.939159 186 4907ft 142kts
17-Jan-21 10:26 33.463239 -117.930351 95 4910ft 141kts
17-Jan-21 10:26 33.456085 -117.892827 122 4910ft 141kts
17-Jan-21 10:27 33.436745 -117.849842 117 4890ft 142kts
17-Jan-21 10:28 33.417476 -117.806957 117 4889ft 141kts
17-Jan-21 10:29 33.398253 -117.764299 117 4890ft 141kts
17-Jan-21 10:30 33.379256 -117.722220 117 4889ft 141kts
17-Jan-21 10:31 33.359744 -117.679052 117 4889ft 141kts
17-Jan-21 10:32 33.340259 -117.636006 117 4890ft 141kts
17-Jan-21 10:33 33.321135 -117.593817 117 4890ft 141kts
17-Jan-21 10:34 33.302387 -117.552503 117 4890ft 141kts
17-Jan-21 10:35 33.291774 -117.506171 100 4890ft 141kts
17-Jan-21 10:36 33.283980 -117.459081 100 4890ft 141kts
17-Jan-21 10:37 33.276220 -117.412142 100 4890ft 141kts
17-Jan-21 10:38 33.268469 -117.365216 100 4890ft 141kts
17-Jan-21 10:39 33.260586 -117.317441 100 4889ft 141kts
17-Jan-21 10:40 33.252872 -117.270637 100 4890ft 141kts
17-Jan-21 10:41 33.245162 -117.223811 100 4889ft 141kts
17-Jan-21 10:42 33.237434 -117.176830 100 4890ft 141kts
17-Jan-21 10:43 33.229584 -117.129070 100 4889ft 141kts
17-Jan-21 10:44 33.221657 -117.080818 100 4888ft 140kts
17-Jan-21 10:45 33.213799 -117.032976 100 4889ft 134kts
17-Jan-21 10:46 33.205985 -116.985381 100 4889ft 134kts
17-Jan-21 10:47 33.198316 -116.938611 100 4890ft 134kts
17-Jan-21 10:48 33.180997 -116.903930 185 4883ft 134kts
17-Jan-21 10:49 33.163005 -116.939815 251 4886ft 126kts
17-Jan-21 10:50 33.157106 -116.981647 281 4810ft 128kts
17-Jan-21 10:51 33.164583 -117.026907 274 3976ft 132kts
17-Jan-21 10:52 33.161375 -117.072008 260 3478ft 115kts
17-Jan-21 10:53 33.154644 -117.115848 258 3138ft 140kts
17-Jan-21 10:54 33.146785 -117.165063 258 2251ft 120kts
17-Jan-21 10:55 33.141084 -117.200538 258 1632ft 88kts
17-Jan-21 10:56 33.135501 -117.235180 258 1035ft 104kts
17-Jan-21 10:57 33.129797 -117.270332 258 398ft 96kts
17-Jan-21 10:58 33.127100 -117.282440 126 323ft 0kts
17-Jan-21 10:59 33.126760 -117.281767 90 321ft 0kts
17-Jan-21 11:00 33.126760 -117.281767 90 321ft 0kts
17-Jan-21 11:01 33.126760 -117.281767 90 321ft 0kts

Navigation Log

Ident Type
Flight plan parsing failed, navigation log unavailable